Terminal Aerodrome Forecast
Issued by NWS Jacksonville, FL

Home | Current Version | Previous Version | Text Only | Print | Product List | Glossary On
Versions: 1 2 3 4 5 6 7 8 9 10 11 12 13 14 15 16 17 18 19 20 21 22 23 24 25
533
FTUS42 KJAX 041257 AAB
TAFJAX
TAF AMD
KJAX 041257Z 0413/0512 32007KT P6SM SCT010 BKN020 OVC060
      TEMPO 0413/0414 5SM -SHRA BR
     FM041400 31008KT P6SM VCSH SCT020 SCT035 OVC100
     FM041600 30010KT P6SM SCT020 BKN040 OVC100
     FM042000 29010KT P6SM SCT040 SCT150=

USA.gov is the U.S. government's official web portal to all federal, state and local government web resources and services.